Time;durP1;ratioP1;P1;durP2;ratioP2;P2;SDS_P1;SDS_P2;PMS_P1;PMS_P2;Temp;Humidity;BMP_temperature;BMP_pressure;BME280_temperature;BME280_humidity;BME280_pressure;Samples;Min_cycle;Max_cycle;Signal;HPM_P1;HPM_P2
2023/01/21 00:01:07;;;;;;;11.30;2.20;;;;;;;;;;4784589;30;20055;-81
2023/01/21 00:03:39;;;;;;;5.78;1.92;;;;;;;;;;4784598;30;20059;-78
2023/01/21 00:06:16;;;;;;;10.32;1.73;;;;;;;;;;4782440;30;20063;-78
2023/01/21 00:08:46;;;;;;;3.95;1.42;;;;;;;;;;4783692;30;20062;-77
2023/01/21 00:11:16;;;;;;;10.82;1.60;;;;;;;;;;4782065;29;20062;-76
2023/01/21 00:13:47;;;;;;;8.63;1.63;;;;;;;;;;4784318;30;20066;-77
2023/01/21 00:16:18;;;;;;;6.05;1.50;;;;;;;;;;4782569;30;20066;-76
2023/01/21 00:18:48;;;;;;;10.70;2.17;;;;;;;;;;4783696;30;20054;-77
2023/01/21 00:21:20;;;;;;;5.18;1.90;;;;;;;;;;4784557;30;20051;-80
2023/01/21 00:23:49;;;;;;;6.63;1.60;;;;;;;;;;4783357;29;20063;-77
2023/01/21 00:26:21;;;;;;;5.82;2.17;;;;;;;;;;4781838;30;20047;-77
2023/01/21 00:28:53;;;;;;;5.88;2.58;;;;;;;;;;4782471;29;20053;-77
2023/01/21 00:31:24;;;;;;;6.93;1.73;;;;;;;;;;4766954;30;20072;-80
2023/01/21 00:33:55;;;;;;;6.72;2.00;;;;;;;;;;4781718;30;20082;-77
2023/01/21 00:36:28;;;;;;;5.32;1.92;;;;;;;;;;4782848;30;20357;-77
2023/01/21 00:38:59;;;;;;;6.13;1.70;;;;;;;;;;4782732;29;20488;-79
2023/01/21 00:41:29;;;;;;;7.50;1.92;;;;;;;;;;4782661;30;20055;-78
2023/01/21 00:43:59;;;;;;;6.22;2.28;;;;;;;;;;4782412;29;20075;-76
2023/01/21 00:46:30;;;;;;;4.18;1.65;;;;;;;;;;4783028;30;20065;-76
2023/01/21 00:49:01;;;;;;;4.93;1.70;;;;;;;;;;4782996;30;20078;-78
2023/01/21 00:51:31;;;;;;;4.28;2.00;;;;;;;;;;4791416;29;20066;-77
2023/01/21 00:54:01;;;;;;;4.53;1.98;;;;;;;;;;4799162;29;20415;-78
2023/01/21 00:56:31;;;;;;;6.45;1.92;;;;;;;;;;4794133;29;20528;-77
2023/01/21 00:59:02;;;;;;;5.85;2.00;;;;;;;;;;4790755;29;20494;-76
2023/01/21 01:01:36;;;;;;;4.03;1.90;;;;;;;;;;4793013;29;20067;-79
2023/01/21 01:04:07;;;;;;;2.90;1.30;;;;;;;;;;4790746;29;20058;-79
2023/01/21 01:06:37;;;;;;;5.97;2.15;;;;;;;;;;4792109;29;20062;-76
2023/01/21 01:09:08;;;;;;;4.03;1.50;;;;;;;;;;4791817;29;20514;-77
2023/01/21 01:11:39;;;;;;;5.35;1.83;;;;;;;;;;4790136;29;20449;-80
2023/01/21 01:14:10;;;;;;;3.47;1.70;;;;;;;;;;4788513;29;20063;-79
2023/01/21 01:16:41;;;;;;;3.53;2.10;;;;;;;;;;4790760;29;20067;-75
2023/01/21 01:19:11;;;;;;;5.03;1.50;;;;;;;;;;4789629;29;20047;-78
2023/01/21 01:22:11;;;;;;;7.38;2.60;;;;;;;;;;4791715;29;20066;-75
2023/01/21 01:24:43;;;;;;;2.45;1.50;;;;;;;;;;4790545;29;20079;-76
2023/01/21 01:27:13;;;;;;;4.18;1.80;;;;;;;;;;4791626;29;20069;-76
2023/01/21 01:29:45;;;;;;;6.40;1.95;;;;;;;;;;4792011;29;20224;-77
2023/01/21 01:32:16;;;;;;;5.40;2.10;;;;;;;;;;4790677;29;20055;-77
2023/01/21 01:34:47;;;;;;;7.28;1.90;;;;;;;;;;4773605;29;20063;-79
2023/01/21 01:37:19;;;;;;;5.07;1.75;;;;;;;;;;4791668;29;20054;-79
2023/01/21 01:39:55;;;;;;;6.10;1.77;;;;;;;;;;4786020;29;20055;-77
2023/01/21 01:42:26;;;;;;;5.13;1.80;;;;;;;;;;4789838;29;20058;-78
2023/01/21 01:45:02;;;;;;;6.03;1.90;;;;;;;;;;4788904;29;20043;-78
2023/01/21 01:47:36;;;;;;;10.68;2.40;;;;;;;;;;4791918;29;20047;-78
2023/01/21 01:50:09;;;;;;;4.40;2.28;;;;;;;;;;4789432;29;20051;-77
2023/01/21 01:52:42;;;;;;;10.20;2.10;;;;;;;;;;4789927;29;20055;-76
2023/01/21 01:55:14;;;;;;;9.40;2.30;;;;;;;;;;4788814;29;20447;-78
2023/01/21 01:57:50;;;;;;;7.30;2.40;;;;;;;;;;4789668;29;20051;-77
2023/01/21 02:00:20;;;;;;;;;;;;;;;;;;4790437;29;20519;-77
2023/01/21 02:05:44;;;;;;;4.53;2.10;;;;;;;;;;4789786;29;20051;-76
2023/01/21 02:08:16;;;;;;;7.72;2.15;;;;;;;;;;4792445;29;20048;-77
2023/01/21 02:10:55;;;;;;;9.02;2.65;;;;;;;;;;4788483;29;20051;-77
2023/01/21 02:13:28;;;;;;;10.38;2.55;;;;;;;;;;4789315;29;20123;-77
2023/01/21 02:15:58;;;;;;;4.32;2.50;;;;;;;;;;4789933;29;20341;-77
2023/01/21 02:18:47;;;;;;;9.57;2.45;;;;;;;;;;4790309;29;20495;-79
2023/01/21 02:21:32;;;;;;;7.30;3.10;;;;;;;;;;4791032;29;20055;-78
2023/01/21 02:24:33;;;;;;;4.53;2.50;;;;;;;;;;4790277;29;20062;-77
2023/01/21 02:27:15;;;;;;;5.30;2.10;;;;;;;;;;4790715;29;20057;-80
2023/01/21 02:30:33;;;;;;;4.53;2.85;;;;;;;;;;4790756;29;20051;-78
2023/01/21 02:33:30;;;;;;;5.47;2.53;;;;;;;;;;4789548;29;20050;-76
2023/01/21 02:36:15;;;;;;;7.07;2.28;;;;;;;;;;4788945;29;20351;-79
2023/01/21 02:39:10;;;;;;;7.68;3.08;;;;;;;;;;4791209;29;20602;-78
2023/01/21 02:42:04;;;;;;;5.85;3.15;;;;;;;;;;4789025;29;20051;-80
2023/01/21 02:44:41;;;;;;;7.95;3.03;;;;;;;;;;4790485;29;20055;-79
2023/01/21 02:47:30;;;;;;;3.83;2.72;;;;;;;;;;4791560;29;20047;-79
2023/01/21 02:50:07;;;;;;;6.57;2.95;;;;;;;;;;4789832;29;20439;-79
2023/01/21 02:52:38;;;;;;;6.53;2.70;;;;;;;;;;4791896;29;20062;-78
2023/01/21 02:55:14;;;;;;;10.25;3.28;;;;;;;;;;4792786;29;20051;-79
2023/01/21 02:57:49;;;;;;;7.10;2.97;;;;;;;;;;4790943;29;20062;-79
2023/01/21 03:00:29;;;;;;;8.45;3.05;;;;;;;;;;4792998;29;20042;-78
2023/01/21 03:03:11;;;;;;;5.88;3.70;;;;;;;;;;4794944;29;20062;-79
2023/01/21 03:05:49;;;;;;;5.60;2.92;;;;;;;;;;4795313;29;20439;-77
2023/01/21 03:08:22;;;;;;;6.30;3.38;;;;;;;;;;4792288;29;20059;-78
2023/01/21 03:11:14;;;;;;;8.85;4.25;;;;;;;;;;4792488;29;20074;-79
2023/01/21 03:16:58;;;;;;;6.45;4.30;;;;;;;;;;4792794;29;20063;-79
2023/01/21 03:19:39;;;;;;;4.47;3.45;;;;;;;;;;4796243;29;20046;-79
2023/01/21 03:22:18;;;;;;;11.15;4.03;;;;;;;;;;4801898;29;20051;-76
2023/01/21 03:24:53;;;;;;;12.60;4.53;;;;;;;;;;4801165;29;20436;-78
2023/01/21 03:27:27;;;;;;;7.03;4.40;;;;;;;;;;4802297;29;20419;-78
2023/01/21 03:30:02;;;;;;;8.40;4.63;;;;;;;;;;4801912;29;20054;-78
2023/01/21 03:32:35;;;;;;;7.60;4.22;;;;;;;;;;4802405;29;20055;-78
2023/01/21 03:35:10;;;;;;;5.53;4.30;;;;;;;;;;4802276;29;20062;-78
2023/01/21 03:37:56;;;;;;;5.65;4.97;;;;;;;;;;4802311;29;20055;-77
2023/01/21 03:40:34;;;;;;;6.85;5.00;;;;;;;;;;4802088;29;20054;-77
2023/01/21 03:43:04;;;;;;;9.77;5.10;;;;;;;;;;4802312;29;20051;-78
2023/01/21 03:46:04;;;;;;;5.63;4.45;;;;;;;;;;4802009;29;20058;-78
2023/01/21 03:48:51;;;;;;;7.88;4.35;;;;;;;;;;4802340;29;20055;-77
2023/01/21 03:51:26;;;;;;;6.78;4.93;;;;;;;;;;4802825;29;20050;-77
2023/01/21 03:53:58;;;;;;;8.60;5.43;;;;;;;;;;4802443;29;20423;-75
2023/01/21 03:56:30;;;;;;;10.27;5.03;;;;;;;;;;4801748;29;20053;-79
2023/01/21 03:59:01;;;;;;;6.15;5.53;;;;;;;;;;4802051;29;20411;-79
2023/01/21 04:01:32;;;;;;;12.32;5.20;;;;;;;;;;4801626;29;20534;-79
2023/01/21 04:04:02;;;;;;;8.95;4.75;;;;;;;;;;4800981;29;20055;-77
2023/01/21 04:06:32;;;;;;;6.95;5.30;;;;;;;;;;4785704;29;20059;-79
2023/01/21 04:09:06;;;;;;;7.43;5.35;;;;;;;;;;4802238;29;20051;-78
2023/01/21 04:11:37;;;;;;;9.23;5.80;;;;;;;;;;4801896;29;20046;-77
2023/01/21 04:14:08;;;;;;;7.20;5.00;;;;;;;;;;4802475;29;20055;-79
2023/01/21 04:16:37;;;;;;;9.05;5.30;;;;;;;;;;4801246;29;20062;-77
2023/01/21 04:19:08;;;;;;;13.35;6.32;;;;;;;;;;4801683;29;20058;-79
2023/01/21 04:21:38;;;;;;;7.55;5.50;;;;;;;;;;4801298;29;20122;-79
2023/01/21 04:24:09;;;;;;;11.23;5.85;;;;;;;;;;4801495;29;20063;-78
2023/01/21 04:26:39;;;;;;;7.47;5.18;;;;;;;;;;4801589;29;20058;-78
2023/01/21 04:29:09;;;;;;;8.02;6.45;;;;;;;;;;4801479;29;20440;-78
2023/01/21 04:31:39;;;;;;;11.20;5.18;;;;;;;;;;4801603;29;20077;-78
2023/01/21 04:34:10;;;;;;;7.20;4.90;;;;;;;;;;4786102;29;20062;-78
2023/01/21 04:36:40;;;;;;;8.38;5.43;;;;;;;;;;4800256;29;20058;-77
2023/01/21 04:39:10;;;;;;;6.82;5.10;;;;;;;;;;4801219;29;20055;-76
2023/01/21 04:41:40;;;;;;;9.57;6.07;;;;;;;;;;4799551;29;20054;-77
2023/01/21 04:44:11;;;;;;;12.77;5.20;;;;;;;;;;4801650;29;20058;-78
2023/01/21 04:46:41;;;;;;;11.13;6.20;;;;;;;;;;4801604;29;20061;-77
2023/01/21 04:49:12;;;;;;;7.65;5.25;;;;;;;;;;4801137;29;20058;-78
2023/01/21 04:51:42;;;;;;;8.48;6.35;;;;;;;;;;4800049;29;20047;-77
2023/01/21 04:54:12;;;;;;;9.80;5.63;;;;;;;;;;4801582;29;20055;-78
2023/01/21 04:56:42;;;;;;;13.05;5.50;;;;;;;;;;4801467;29;20059;-77
2023/01/21 04:59:15;;;;;;;9.00;5.55;;;;;;;;;;4800145;29;20078;-77
2023/01/21 05:01:46;;;;;;;8.15;5.55;;;;;;;;;;4800339;29;20061;-77
2023/01/21 05:04:16;;;;;;;7.40;6.28;;;;;;;;;;4801318;29;20047;-77
2023/01/21 05:06:46;;;;;;;7.60;6.30;;;;;;;;;;4800849;29;20047;-77
2023/01/21 05:09:16;;;;;;;9.48;6.68;;;;;;;;;;4800506;29;20427;-79
2023/01/21 05:11:48;;;;;;;11.68;6.78;;;;;;;;;;4800519;29;20062;-78
2023/01/21 05:14:19;;;;;;;11.32;7.18;;;;;;;;;;4800752;29;20046;-79
2023/01/21 05:16:49;;;;;;;12.88;7.40;;;;;;;;;;4801105;29;20055;-77
2023/01/21 05:19:19;;;;;;;7.32;6.57;;;;;;;;;;4800663;29;20055;-76
2023/01/21 05:21:51;;;;;;;7.95;6.78;;;;;;;;;;4801028;29;20508;-77
2023/01/21 05:24:21;;;;;;;8.82;7.32;;;;;;;;;;4800345;29;20062;-77
2023/01/21 05:26:52;;;;;;;8.63;6.20;;;;;;;;;;4800550;29;20050;-76
2023/01/21 05:29:22;;;;;;;12.25;7.13;;;;;;;;;;4800673;29;20062;-78
2023/01/21 05:31:52;;;;;;;8.68;7.50;;;;;;;;;;4800541;29;20042;-78
2023/01/21 05:34:22;;;;;;;10.65;6.45;;;;;;;;;;4800402;29;20526;-78
2023/01/21 05:36:53;;;;;;;15.27;7.90;;;;;;;;;;4800466;29;20070;-78
2023/01/21 05:39:23;;;;;;;13.02;7.03;;;;;;;;;;4800355;29;20054;-77
2023/01/21 05:41:53;;;;;;;7.95;7.15;;;;;;;;;;4800957;29;20102;-76
2023/01/21 05:44:24;;;;;;;9.40;7.72;;;;;;;;;;4800176;29;20130;-77
2023/01/21 05:46:55;;;;;;;10.35;8.02;;;;;;;;;;4800186;29;20426;-78
2023/01/21 05:49:26;;;;;;;9.48;8.15;;;;;;;;;;4798998;29;20055;-76
2023/01/21 05:51:57;;;;;;;10.63;7.15;;;;;;;;;;4800646;29;20047;-78
2023/01/21 05:54:27;;;;;;;9.38;6.65;;;;;;;;;;4800138;29;20055;-77
2023/01/21 05:56:57;;;;;;;7.75;6.50;;;;;;;;;;4800086;29;20054;-76
2023/01/21 05:59:29;;;;;;;10.23;6.28;;;;;;;;;;4800498;29;20055;-78
2023/01/21 06:02:00;;;;;;;7.72;6.85;;;;;;;;;;4800673;29;20439;-75
2023/01/21 06:04:29;;;;;;;11.23;7.70;;;;;;;;;;4801152;29;20495;-77
2023/01/21 06:06:59;;;;;;;9.63;7.55;;;;;;;;;;4800715;29;20050;-76
2023/01/21 06:09:30;;;;;;;9.80;6.53;;;;;;;;;;4799748;29;20102;-78
2023/01/21 06:12:00;;;;;;;10.98;7.22;;;;;;;;;;4799803;29;20055;-77
2023/01/21 06:14:31;;;;;;;14.55;6.47;;;;;;;;;;4799004;29;20067;-83
2023/01/21 06:17:01;;;;;;;20.35;7.75;;;;;;;;;;4799938;29;20427;-76
2023/01/21 06:19:32;;;;;;;12.10;7.07;;;;;;;;;;4800546;29;20073;-77
2023/01/21 06:22:03;;;;;;;9.52;7.28;;;;;;;;;;4799997;29;20376;-78
2023/01/21 06:24:33;;;;;;;7.28;6.40;;;;;;;;;;4799511;29;20476;-78
2023/01/21 06:27:03;;;;;;;10.80;6.63;;;;;;;;;;4797084;29;20059;-75
2023/01/21 06:29:33;;;;;;;9.10;6.78;;;;;;;;;;4799328;29;20050;-77
2023/01/21 06:32:04;;;;;;;9.32;6.68;;;;;;;;;;4799213;29;20051;-77
2023/01/21 06:35:01;;;;;;;9.73;7.18;;;;;;;;;;4799671;29;20039;-76
2023/01/21 06:37:32;;;;;;;9.25;7.45;;;;;;;;;;4799448;29;20063;-76
2023/01/21 06:40:02;;;;;;;8.88;7.35;;;;;;;;;;4799336;29;20427;-75
2023/01/21 06:42:32;;;;;;;8.40;7.28;;;;;;;;;;4799862;29;20047;-78
2023/01/21 06:45:03;;;;;;;9.07;6.82;;;;;;;;;;4799394;29;20508;-75
2023/01/21 06:47:35;;;;;;;9.48;6.18;;;;;;;;;;4800060;29;20057;-76
2023/01/21 06:50:05;;;;;;;10.27;6.50;;;;;;;;;;4799342;29;20468;-75
2023/01/21 06:52:36;;;;;;;19.30;6.88;;;;;;;;;;4799813;29;20065;-78
2023/01/21 06:55:06;;;;;;;10.68;7.25;;;;;;;;;;4799577;29;20062;-78
2023/01/21 06:57:38;;;;;;;8.13;7.03;;;;;;;;;;4798266;29;20054;-78
2023/01/21 07:00:10;;;;;;;9.00;6.60;;;;;;;;;;4799306;29;20062;-77
2023/01/21 07:02:41;;;;;;;11.93;6.03;;;;;;;;;;4799230;29;20046;-77
2023/01/21 07:05:13;;;;;;;8.00;6.22;;;;;;;;;;4799649;29;20081;-76
2023/01/21 07:07:45;;;;;;;13.75;6.32;;;;;;;;;;4799614;29;20054;-76
2023/01/21 07:10:15;;;;;;;9.65;7.00;;;;;;;;;;4799137;29;20503;-79
2023/01/21 07:12:46;;;;;;;11.07;5.95;;;;;;;;;;4799500;29;20051;-76
2023/01/21 07:15:16;;;;;;;10.18;7.38;;;;;;;;;;4799532;29;20047;-78
2023/01/21 07:17:48;;;;;;;11.20;6.88;;;;;;;;;;4799121;29;20062;-78
2023/01/21 07:20:18;;;;;;;11.55;6.10;;;;;;;;;;4799469;29;20050;-77
2023/01/21 07:22:48;;;;;;;9.65;5.90;;;;;;;;;;4799045;29;20057;-78
2023/01/21 07:25:19;;;;;;;15.20;7.25;;;;;;;;;;4799059;29;20727;-77
2023/01/21 07:27:50;;;;;;;20.17;6.10;;;;;;;;;;4798495;29;20073;-76
2023/01/21 07:30:21;;;;;;;9.07;5.93;;;;;;;;;;4799436;29;20432;-77
2023/01/21 07:32:52;;;;;;;10.30;5.93;;;;;;;;;;4799347;29;20070;-78
2023/01/21 07:35:22;;;;;;;12.05;6.15;;;;;;;;;;4799196;29;20069;-78
2023/01/21 07:37:53;;;;;;;14.65;6.57;;;;;;;;;;4797350;29;20060;-77
2023/01/21 07:40:24;;;;;;;12.73;6.72;;;;;;;;;;4802646;29;20047;-77
2023/01/21 07:42:55;;;;;;;10.57;5.30;;;;;;;;;;4803473;29;20063;-75
2023/01/21 07:45:26;;;;;;;17.42;6.43;;;;;;;;;;4802790;29;20054;-77
2023/01/21 07:47:58;;;;;;;10.20;5.57;;;;;;;;;;4802594;29;20510;-76
2023/01/21 07:50:29;;;;;;;14.68;6.50;;;;;;;;;;4802262;29;20055;-78
2023/01/21 07:53:00;;;;;;;9.77;6.47;;;;;;;;;;4801619;29;20085;-78
2023/01/21 07:55:31;;;;;;;13.38;6.15;;;;;;;;;;4800623;29;20062;-78
2023/01/21 07:58:01;;;;;;;13.68;6.32;;;;;;;;;;4802113;29;20082;-76
2023/01/21 08:00:33;;;;;;;12.18;6.18;;;;;;;;;;4786393;29;20062;-77
2023/01/21 08:03:04;;;;;;;10.38;6.40;;;;;;;;;;4801828;29;20053;-78
2023/01/21 08:05:33;;;;;;;8.45;5.53;;;;;;;;;;4802175;29;20519;-75
2023/01/21 08:08:04;;;;;;;7.15;5.22;;;;;;;;;;4802440;29;20055;-78
2023/01/21 08:10:35;;;;;;;9.07;5.05;;;;;;;;;;4802088;29;20067;-76
2023/01/21 08:13:06;;;;;;;12.25;5.78;;;;;;;;;;4801894;29;20055;-77
2023/01/21 08:15:37;;;;;;;8.02;6.07;;;;;;;;;;4801430;29;20062;-76
2023/01/21 08:18:06;;;;;;;10.98;6.80;;;;;;;;;;4801757;29;20055;-78
2023/01/21 08:20:37;;;;;;;10.27;5.13;;;;;;;;;;4801738;29;20058;-76
2023/01/21 08:23:08;;;;;;;11.88;6.53;;;;;;;;;;4801642;29;20468;-78
2023/01/21 08:25:39;;;;;;;9.05;6.60;;;;;;;;;;4801360;29;20065;-77
2023/01/21 08:28:08;;;;;;;7.78;6.60;;;;;;;;;;4801899;29;20050;-78
2023/01/21 08:30:39;;;;;;;14.65;5.22;;;;;;;;;;4802060;29;20051;-77
2023/01/21 08:33:09;;;;;;;7.25;5.93;;;;;;;;;;4801727;29;20051;-77
2023/01/21 08:35:40;;;;;;;9.43;7.00;;;;;;;;;;4801535;29;20055;-76
2023/01/21 08:38:11;;;;;;;6.63;5.93;;;;;;;;;;4800958;29;20495;-77
2023/01/21 08:40:41;;;;;;;10.02;7.20;;;;;;;;;;4800888;29;20054;-76
2023/01/21 08:43:11;;;;;;;10.25;6.75;;;;;;;;;;4799864;29;20519;-78
2023/01/21 08:45:41;;;;;;;17.10;6.57;;;;;;;;;;4801472;29;20058;-76
2023/01/21 08:48:13;;;;;;;11.48;5.40;;;;;;;;;;4801496;29;20058;-77
2023/01/21 08:50:44;;;;;;;12.52;6.60;;;;;;;;;;4801149;29;20050;-77
2023/01/21 08:53:14;;;;;;;8.00;5.25;;;;;;;;;;4801134;29;20051;-78
2023/01/21 08:55:44;;;;;;;8.95;6.30;;;;;;;;;;4801589;29;20051;-78
2023/01/21 08:58:14;;;;;;;6.80;6.10;;;;;;;;;;4801376;29;20059;-77
2023/01/21 09:00:46;;;;;;;6.80;5.43;;;;;;;;;;4800923;29;20050;-76
2023/01/21 09:03:18;;;;;;;13.77;5.65;;;;;;;;;;4800403;29;20059;-77
2023/01/21 09:05:53;;;;;;;7.38;5.50;;;;;;;;;;4800524;29;20059;-77
2023/01/21 09:08:23;;;;;;;9.40;5.60;;;;;;;;;;4799545;29;20070;-77
2023/01/21 09:11:01;;;;;;;8.05;5.35;;;;;;;;;;4800672;29;20063;-77
2023/01/21 09:13:36;;;;;;;11.00;6.10;;;;;;;;;;4800680;29;20063;-78
2023/01/21 09:16:11;;;;;;;13.75;6.07;;;;;;;;;;4800478;29;20059;-77
2023/01/21 09:18:42;;;;;;;9.70;5.75;;;;;;;;;;4799958;29;20074;-78
2023/01/21 09:21:13;;;;;;;8.27;5.20;;;;;;;;;;4801169;29;20043;-77
2023/01/21 09:23:44;;;;;;;9.68;5.32;;;;;;;;;;4800747;29;20051;-78
2023/01/21 09:26:16;;;;;;;9.60;6.88;;;;;;;;;;4800906;29;20055;-77
2023/01/21 09:28:52;;;;;;;20.30;5.90;;;;;;;;;;4800197;29;20046;-78
2023/01/21 09:31:24;;;;;;;9.55;5.35;;;;;;;;;;4800646;29;20054;-78
2023/01/21 09:34:00;;;;;;;10.85;6.55;;;;;;;;;;4799566;29;20078;-78
2023/01/21 09:36:32;;;;;;;12.68;5.20;;;;;;;;;;4800604;29;20066;-78
2023/01/21 09:39:04;;;;;;;13.15;5.78;;;;;;;;;;4799128;29;20058;-77
2023/01/21 09:41:55;;;;;;;11.93;5.22;;;;;;;;;;4791170;29;20055;-76
2023/01/21 09:44:31;;;;;;;9.63;5.45;;;;;;;;;;4766841;30;20052;-78
2023/01/21 09:47:19;;;;;;;9.43;5.30;;;;;;;;;;4782136;30;20047;-77
2023/01/21 09:50:02;;;;;;;9.05;5.25;;;;;;;;;;4782188;30;20401;-78
2023/01/21 09:52:53;;;;;;;14.35;5.80;;;;;;;;;;4782478;30;20055;-77
2023/01/21 09:55:40;;;;;;;11.38;4.82;;;;;;;;;;4780900;30;20058;-77
2023/01/21 09:58:19;;;;;;;10.13;4.43;;;;;;;;;;4780583;30;20697;-76
2023/01/21 10:01:26;;;;;;;8.98;4.18;;;;;;;;;;4765402;30;20055;-77
2023/01/21 10:04:03;;;;;;;7.25;3.40;;;;;;;;;;4770205;30;20439;-78
2023/01/21 10:06:45;;;;;;;6.13;3.03;;;;;;;;;;4781982;30;20062;-76
2023/01/21 10:09:33;;;;;;;5.75;2.67;;;;;;;;;;4782262;30;20484;-77
2023/01/21 10:12:09;;;;;;;4.15;2.85;;;;;;;;;;4782146;30;20384;-77
2023/01/21 10:15:17;;;;;;;9.82;5.47;;;;;;;;;;4782227;30;20043;-77
2023/01/21 10:18:11;;;;;;;8.00;3.42;;;;;;;;;;4781945;29;20048;-77
2023/01/21 10:20:55;;;;;;;4.28;2.70;;;;;;;;;;4781587;30;20423;-78
2023/01/21 10:23:39;;;;;;;4.30;2.13;;;;;;;;;;4779748;29;20066;-77
2023/01/21 10:26:13;;;;;;;6.22;2.25;;;;;;;;;;4780694;30;20078;-78
2023/01/21 10:28:49;;;;;;;7.95;2.83;;;;;;;;;;4781214;30;20412;-80
2023/01/21 10:31:27;;;;;;;7.20;2.35;;;;;;;;;;4781567;30;20055;-77
2023/01/21 10:33:57;;;;;;;7.72;2.33;;;;;;;;;;4781643;30;20055;-80
2023/01/21 10:37:19;;;;;;;4.28;2.10;;;;;;;;;;4782193;29;20420;-78
2023/01/21 10:39:58;;;;;;;3.50;1.60;;;;;;;;;;4780697;29;20066;-78
2023/01/21 10:42:44;;;;;;;4.28;1.67;;;;;;;;;;4781420;30;20082;-79
2023/01/21 10:45:20;;;;;;;4.80;2.00;;;;;;;;;;4781430;30;20519;-78
2023/01/21 10:47:59;;;;;;;9.27;2.30;;;;;;;;;;4781237;30;20523;-79
2023/01/21 10:50:48;;;;;;;9.75;4.97;;;;;;;;;;4781286;30;20054;-77
2023/01/21 10:53:49;;;;;;;4.95;1.80;;;;;;;;;;4781699;30;20059;-78
2023/01/21 10:56:37;;;;;;;9.55;3.67;;;;;;;;;;4781643;30;20047;-78
2023/01/21 10:59:19;;;;;;;10.68;2.30;;;;;;;;;;4781349;30;20440;-79
2023/01/21 11:02:03;;;;;;;5.90;1.77;;;;;;;;;;4779664;30;20059;-78
2023/01/21 11:04:36;;;;;;;4.07;1.40;;;;;;;;;;4780706;30;20492;-77
2023/01/21 11:07:11;;;;;;;2.97;1.35;;;;;;;;;;4780390;30;20500;-78
2023/01/21 11:09:46;;;;;;;1.40;1.30;;;;;;;;;;4781204;30;20059;-78
2023/01/21 11:12:22;;;;;;;1.95;1.38;;;;;;;;;;4781873;29;20055;-76
2023/01/21 11:14:57;;;;;;;4.40;1.90;;;;;;;;;;4783933;30;20055;-79
2023/01/21 11:17:36;;;;;;;3.13;1.20;;;;;;;;;;4785131;30;20047;-78
2023/01/21 11:20:34;;;;;;;5.07;1.30;;;;;;;;;;4784538;30;20047;-77
2023/01/21 11:23:06;;;;;;;3.53;1.27;;;;;;;;;;4784757;30;20059;-78
2023/01/21 11:25:42;;;;;;;3.70;1.45;;;;;;;;;;4785054;30;20086;-77
2023/01/21 11:28:23;;;;;;;7.05;1.10;;;;;;;;;;4786715;29;20525;-79
2023/01/21 11:31:09;;;;;;;;;;;;;;;;;;4803217;29;20618;-78
2023/01/21 11:33:43;;;;;;;8.48;1.77;;;;;;;;;;4802663;29;19936;-77
2023/01/21 11:36:19;;;;;;;2.10;1.17;;;;;;;;;;4803164;29;20074;-83
2023/01/21 11:39:21;;;;;;;10.10;1.33;;;;;;;;;;4802652;29;20448;-79
2023/01/21 11:41:57;;;;;;;4.93;1.20;;;;;;;;;;4801622;29;20066;-75
2023/01/21 11:44:27;;;;;;;1.63;1.10;;;;;;;;;;4802142;29;20058;-74
2023/01/21 11:46:59;;;;;;;6.78;1.05;;;;;;;;;;4802011;29;20067;-79
2023/01/21 11:49:32;;;;;;;2.05;1.10;;;;;;;;;;4802620;29;20063;-76
2023/01/21 11:52:17;;;;;;;7.03;1.30;;;;;;;;;;4802542;29;20059;-77
2023/01/21 11:54:49;;;;;;;5.20;1.08;;;;;;;;;;4802096;29;20448;-78
2023/01/21 11:57:32;;;;;;;4.68;1.05;;;;;;;;;;4802280;29;20051;-75
2023/01/21 12:00:24;;;;;;;3.00;1.23;;;;;;;;;;4801951;29;20059;-78
2023/01/21 12:03:01;;;;;;;5.88;1.20;;;;;;;;;;4802647;29;20051;-78
2023/01/21 12:05:44;;;;;;;2.40;0.82;;;;;;;;;;4802458;29;20530;-78
2023/01/21 12:08:29;;;;;;;4.53;1.10;;;;;;;;;;4801875;29;20396;-78
2023/01/21 12:11:02;;;;;;;4.88;1.08;;;;;;;;;;4801956;29;20533;-76
2023/01/21 12:13:45;;;;;;;3.83;1.00;;;;;;;;;;4801960;29;20062;-76
2023/01/21 12:16:21;;;;;;;8.85;1.10;;;;;;;;;;4801992;29;20058;-76
2023/01/21 12:19:17;;;;;;;10.98;1.13;;;;;;;;;;4801820;29;20055;-80
2023/01/21 12:22:19;;;;;;;4.05;1.20;;;;;;;;;;4801746;29;20050;-78
2023/01/21 12:25:02;;;;;;;1.98;0.77;;;;;;;;;;4798920;29;20051;-81
2023/01/21 12:27:59;;;;;;;6.78;0.95;;;;;;;;;;4801908;29;20059;-79
2023/01/21 12:30:55;;;;;;;3.70;1.08;;;;;;;;;;4801858;29;20062;-75
2023/01/21 12:33:29;;;;;;;5.07;1.10;;;;;;;;;;4800602;29;20061;-80
2023/01/21 12:36:39;;;;;;;7.13;1.02;;;;;;;;;;4802126;29;20054;-78
2023/01/21 12:39:17;;;;;;;3.00;0.93;;;;;;;;;;4800139;29;20069;-76
2023/01/21 12:42:13;;;;;;;2.83;0.82;;;;;;;;;;4801502;29;20055;-76
2023/01/21 12:44:58;;;;;;;9.25;1.85;;;;;;;;;;4801380;29;20063;-78
2023/01/21 12:47:59;;;;;;;5.00;1.95;;;;;;;;;;4799508;29;20065;-75
2023/01/21 12:50:54;;;;;;;2.88;1.00;;;;;;;;;;4784743;29;20092;-75
2023/01/21 12:53:52;;;;;;;3.97;1.17;;;;;;;;;;4799843;29;20065;-79
2023/01/21 12:56:34;;;;;;;2.70;0.93;;;;;;;;;;4801224;29;20511;-80
2023/01/21 12:59:20;;;;;;;2.55;1.30;;;;;;;;;;4800637;29;20446;-79
2023/01/21 13:02:13;;;;;;;3.45;1.10;;;;;;;;;;4800786;29;20042;-75
2023/01/21 13:04:52;;;;;;;3.28;0.95;;;;;;;;;;4800965;29;20060;-77
2023/01/21 13:07:47;;;;;;;3.33;1.10;;;;;;;;;;4800909;29;20050;-75
2023/01/21 13:10:37;;;;;;;4.55;1.10;;;;;;;;;;4801743;29;20047;-75
2023/01/21 13:13:22;;;;;;;4.95;1.02;;;;;;;;;;4802444;29;20055;-74
2023/01/21 13:15:57;;;;;;;3.10;1.15;;;;;;;;;;4800944;29;20515;-76
2023/01/21 13:18:33;;;;;;;2.25;1.20;;;;;;;;;;4799366;29;20061;-77
2023/01/21 13:21:31;;;;;;;8.13;1.65;;;;;;;;;;4801104;29;20066;-76
2023/01/21 13:24:16;;;;;;;7.20;1.23;;;;;;;;;;4800041;29;20058;-76
2023/01/21 13:27:20;;;;;;;5.90;1.10;;;;;;;;;;4800504;29;20549;-76
2023/01/21 13:30:13;;;;;;;4.38;1.33;;;;;;;;;;4799078;29;20973;-76
2023/01/21 13:32:55;;;;;;;6.05;1.67;;;;;;;;;;4800273;29;20070;-78
2023/01/21 13:35:32;;;;;;;16.50;1.80;;;;;;;;;;4800305;29;20055;-77
2023/01/21 13:38:38;;;;;;;3.42;1.42;;;;;;;;;;4799493;29;20057;-76
2023/01/21 13:41:26;;;;;;;3.92;1.35;;;;;;;;;;4800642;29;20066;-79
2023/01/21 13:43:57;;;;;;;3.30;1.30;;;;;;;;;;4800294;29;20054;-77
2023/01/21 13:46:51;;;;;;;4.05;1.38;;;;;;;;;;4800361;29;20042;-77
2023/01/21 13:49:55;;;;;;;3.90;1.50;;;;;;;;;;4784016;29;20066;-77
2023/01/21 13:52:35;;;;;;;5.72;1.60;;;;;;;;;;4799843;29;20050;-75
2023/01/21 13:55:26;;;;;;;5.25;1.67;;;;;;;;;;4799920;29;20431;-76
2023/01/21 13:58:12;;;;;;;3.33;1.27;;;;;;;;;;4800437;29;20047;-75
2023/01/21 14:01:19;;;;;;;3.38;1.27;;;;;;;;;;4800437;29;20503;-75
2023/01/21 14:04:17;;;;;;;4.15;1.42;;;;;;;;;;4798191;29;20065;-78
2023/01/21 14:06:59;;;;;;;4.85;1.60;;;;;;;;;;4799694;29;20610;-76
2023/01/21 14:09:38;;;;;;;10.30;2.05;;;;;;;;;;4799623;29;20062;-74
2023/01/21 14:12:24;;;;;;;3.22;1.65;;;;;;;;;;4799997;29;20413;-74
2023/01/21 14:15:39;;;;;;;7.45;1.80;;;;;;;;;;4799602;29;20426;-76
2023/01/21 14:19:00;;;;;;;10.25;1.70;;;;;;;;;;4798414;29;20503;-75
2023/01/21 14:21:40;;;;;;;4.53;1.20;;;;;;;;;;4799567;29;20066;-77
2023/01/21 14:24:27;;;;;;;3.40;1.63;;;;;;;;;;4799604;29;20063;-75
2023/01/21 14:27:30;;;;;;;7.65;2.70;;;;;;;;;;4799456;29;20051;-77
2023/01/21 14:30:23;;;;;;;5.30;1.42;;;;;;;;;;4799846;29;20512;-80
2023/01/21 14:33:02;;;;;;;9.35;4.90;;;;;;;;;;4799158;29;20050;-78
2023/01/21 14:35:41;;;;;;;6.00;1.45;;;;;;;;;;4799568;29;20047;-75
2023/01/21 14:39:02;;;;;;;8.75;1.70;;;;;;;;;;4799483;29;20058;-76
2023/01/21 14:41:53;;;;;;;4.25;1.40;;;;;;;;;;4798425;29;20063;-74
2023/01/21 14:45:04;;;;;;;4.28;1.70;;;;;;;;;;4799743;29;20468;-76
2023/01/21 14:47:34;;;;;;;4.47;1.50;;;;;;;;;;4799108;29;20063;-76
2023/01/21 14:50:06;;;;;;;3.60;1.40;;;;;;;;;;4803298;29;20058;-78
2023/01/21 14:52:46;;;;;;;4.68;1.17;;;;;;;;;;4803206;29;20038;-76
2023/01/21 14:55:27;;;;;;;2.58;1.30;;;;;;;;;;4787312;29;20051;-76
2023/01/21 14:58:00;;;;;;;6.60;1.25;;;;;;;;;;4803369;29;20055;-75
2023/01/21 15:00:33;;;;;;;4.88;1.42;;;;;;;;;;4802643;29;20067;-77
2023/01/21 15:03:27;;;;;;;3.08;1.52;;;;;;;;;;4802830;29;20541;-80
2023/01/21 15:06:02;;;;;;;9.75;2.25;;;;;;;;;;4786925;29;20065;-77
2023/01/21 15:08:43;;;;;;;3.70;1.80;;;;;;;;;;4803099;29;20148;-76
2023/01/21 15:11:43;;;;;;;6.57;1.42;;;;;;;;;;4802173;29;20407;-75
2023/01/21 15:14:21;;;;;;;7.28;1.80;;;;;;;;;;4802147;29;20074;-76
2023/01/21 15:16:51;;;;;;;3.67;1.23;;;;;;;;;;4802950;29;20062;-77
2023/01/21 15:19:31;;;;;;;3.42;1.35;;;;;;;;;;4801380;29;20062;-77
2023/01/21 15:22:02;;;;;;;5.13;1.27;;;;;;;;;;4802328;29;20066;-78
2023/01/21 15:24:36;;;;;;;5.47;1.35;;;;;;;;;;4802517;29;20400;-77
2023/01/21 15:27:19;;;;;;;4.22;1.40;;;;;;;;;;4801387;29;20058;-75
2023/01/21 15:29:59;;;;;;;4.93;1.38;;;;;;;;;;4802379;29;20051;-77
2023/01/21 15:32:43;;;;;;;2.30;1.58;;;;;;;;;;4768880;29;20043;-75
2023/01/21 15:35:18;;;;;;;4.13;1.17;;;;;;;;;;4765117;30;20059;-80
2023/01/21 15:37:52;;;;;;;3.15;1.40;;;;;;;;;;4766890;30;20056;-75
2023/01/21 15:40:33;;;;;;;6.20;2.05;;;;;;;;;;4766988;30;20373;-77
2023/01/21 15:43:18;;;;;;;2.85;1.10;;;;;;;;;;4766680;30;20051;-77
2023/01/21 15:46:02;;;;;;;5.65;1.65;;;;;;;;;;4766507;30;20068;-75
2023/01/21 15:48:47;;;;;;;4.03;1.30;;;;;;;;;;4766625;30;20070;-76